createdAt,value
2019-05-07T00:01:53.520Z,59883.73
2019-05-07T00:04:19.900Z,59881.70
2019-05-07T00:06:48.309Z,59871.54
2019-05-07T00:09:16.709Z,59877.64
2019-05-07T00:11:45.116Z,59893.89
2019-05-07T00:14:13.791Z,59889.83
2019-05-07T00:16:42.603Z,59889.83
2019-05-07T00:19:12.914Z,59876.62
2019-05-07T00:21:42.268Z,59869.51
2019-05-07T00:24:13.237Z,59886.78
2019-05-07T00:26:42.979Z,59879.67
2019-05-07T00:29:12.926Z,59861.38
2019-05-07T00:31:42.213Z,59880.68
2019-05-07T00:34:12.591Z,59879.67
2019-05-07T00:36:42.703Z,59869.51
2019-05-07T00:39:18.215Z,59875.61
2019-05-07T00:41:57.828Z,59860.36
2019-05-07T00:44:26.304Z,59874.59
2019-05-07T00:46:54.930Z,59875.61
2019-05-07T00:49:25.435Z,59870.52
2019-05-07T00:51:53.890Z,59869.51
2019-05-07T00:54:23.111Z,59887.80
2019-05-07T00:56:52.200Z,59867.47
2019-05-07T00:59:22.609Z,59889.83
2019-05-07T01:01:52.837Z,59870.52
2019-05-07T01:04:22.951Z,59862.39
2019-05-07T01:06:53.227Z,59880.68
2019-05-07T01:09:22.912Z,59864.43
2019-05-07T01:11:52.402Z,59863.41
2019-05-07T01:14:22.833Z,59866.46
2019-05-07T01:16:52.911Z,59881.70
2019-05-07T01:19:22.026Z,59853.25
2019-05-07T01:21:52.465Z,59882.71
2019-05-07T01:24:23.088Z,59882.71
2019-05-07T01:26:52.948Z,59873.57
2019-05-07T01:29:22.559Z,59873.57
2019-05-07T01:31:52.845Z,59855.28
2019-05-07T01:34:34.479Z,59880.68
2019-05-07T01:37:03.201Z,59906.09
2019-05-07T01:39:32.612Z,59886.78
2019-05-07T01:42:02.123Z,59865.44
2019-05-07T01:44:32.513Z,59874.59
2019-05-07T01:47:02.551Z,59854.27
2019-05-07T01:49:33.085Z,59891.86
2019-05-07T01:52:02.455Z,59858.33
2019-05-07T01:54:33.223Z,59886.78
2019-05-07T01:57:02.824Z,59874.59
2019-05-07T01:59:32.138Z,59867.47
2019-05-07T02:02:08.129Z,59890.84
2019-05-07T02:04:38.177Z,59884.75
2019-05-07T02:07:17.870Z,59860.36
2019-05-07T02:09:51.907Z,59860.36
2019-05-07T02:12:24.870Z,59889.83
2019-05-07T02:14:53.555Z,59889.83
2019-05-07T02:17:22.810Z,59880.68
2019-05-07T02:19:52.748Z,59865.44
2019-05-07T02:22:22.667Z,59871.54
2019-05-07T02:24:52.391Z,59879.67
2019-05-07T02:27:22.138Z,59891.86
2019-05-07T02:29:52.926Z,59884.75
2019-05-07T02:32:23.688Z,59867.47
2019-05-07T02:34:54.412Z,59891.86
2019-05-07T02:37:27.383Z,59884.75
2019-05-07T02:40:14.204Z,59864.43
2019-05-07T02:42:44.292Z,59877.64
2019-05-07T02:45:17.233Z,59891.86
2019-05-07T02:47:45.648Z,59886.78
2019-05-07T02:50:22.747Z,59883.73
2019-05-07T02:52:56.295Z,59870.52
2019-05-07T02:55:35.499Z,59889.83
2019-05-07T02:58:04.241Z,59874.59
2019-05-07T03:00:33.520Z,59871.54
2019-05-07T03:03:04.067Z,59883.73
2019-05-07T03:05:34.956Z,59873.57
2019-05-07T03:08:03.652Z,59883.73
2019-05-07T03:10:34.068Z,59857.32
2019-05-07T03:13:03.426Z,59861.38
2019-05-07T03:15:33.424Z,59876.62
2019-05-07T03:18:03.449Z,59880.68
2019-05-07T03:20:34.819Z,59886.78
2019-05-07T03:23:04.244Z,59894.91
2019-05-07T03:25:49.708Z,59887.80
2019-05-07T03:28:19.201Z,59870.52
2019-05-07T03:30:56.697Z,59862.39
2019-05-07T03:33:27.286Z,59870.52
2019-05-07T03:36:06.248Z,59883.73
2019-05-07T03:38:33.302Z,59897.96
2019-05-07T03:41:03.423Z,59872.55
2019-05-07T03:43:32.500Z,59890.84
2019-05-07T03:46:05.568Z,59875.61
2019-05-07T03:48:35.857Z,59890.84
2019-05-07T03:51:04.236Z,59875.61
2019-05-07T03:53:33.938Z,59873.57
2019-05-07T03:56:04.126Z,59889.83
2019-05-07T03:58:33.947Z,59909.13
2019-05-07T04:01:04.390Z,59875.61
2019-05-07T04:03:34.129Z,59868.49
2019-05-07T04:06:04.119Z,59875.61
2019-05-07T04:08:33.360Z,59877.64
2019-05-07T04:11:03.581Z,59858.33
2019-05-07T04:13:33.563Z,59872.55
2019-05-07T04:16:03.965Z,59878.65
2019-05-07T04:18:33.308Z,59878.65
2019-05-07T04:21:03.717Z,59864.43
2019-05-07T04:23:34.108Z,59897.96
2019-05-07T04:26:04.658Z,59873.57
2019-05-07T04:28:37.565Z,59880.68
2019-05-07T04:31:06.012Z,59895.93
2019-05-07T04:33:38.781Z,59891.86
2019-05-07T04:36:09.118Z,59903.04
2019-05-07T04:38:37.512Z,59872.55
2019-05-07T04:41:05.914Z,59885.76
2019-05-07T04:43:34.305Z,59914.21
2019-05-07T04:46:03.398Z,59902.02
2019-05-07T04:48:34.132Z,59888.81
2019-05-07T04:51:03.767Z,59910.15
2019-05-07T04:53:32.781Z,59874.59
2019-05-07T04:56:03.327Z,59876.62
2019-05-07T04:58:33.919Z,59932.50
2019-05-07T05:01:03.232Z,59874.59
2019-05-07T05:03:34.632Z,59879.67
2019-05-07T05:06:02.657Z,59872.55
2019-05-07T05:08:32.520Z,59873.57
2019-05-07T05:11:03.328Z,59889.83
2019-05-07T05:13:33.044Z,59885.76
2019-05-07T05:16:03.708Z,59897.96
2019-05-07T05:18:32.951Z,59874.59
2019-05-07T05:21:03.117Z,59901.00
2019-05-07T05:23:41.765Z,59886.78
2019-05-07T05:26:09.523Z,59891.86
2019-05-07T05:28:38.018Z,59901.00
2019-05-07T05:31:07.820Z,59882.71
2019-05-07T05:33:36.217Z,59860.36
2019-05-07T05:36:04.920Z,59888.81
2019-05-07T05:38:33.582Z,59879.67
2019-05-07T05:41:02.734Z,59879.67
2019-05-07T05:43:35.490Z,59869.51
2019-05-07T05:46:05.653Z,59869.51
2019-05-07T05:48:34.294Z,59871.54
2019-05-07T05:51:04.402Z,59893.89
2019-05-07T05:53:52.281Z,59884.75
2019-05-07T05:56:24.449Z,59884.75
2019-05-07T05:58:58.402Z,59889.83
2019-05-07T06:01:47.216Z,59889.83
2019-05-07T06:04:32.958Z,59869.51
2019-05-07T06:07:11.034Z,59869.51
2019-05-07T06:09:46.691Z,59866.46
2019-05-07T06:12:33.012Z,59870.52
2019-05-07T06:15:02.999Z,59863.41
2019-05-07T06:17:33.328Z,59868.49
2019-05-07T06:20:18.369Z,59868.49
2019-05-07T06:23:05.295Z,59886.78
2019-05-07T06:25:33.701Z,59886.78
2019-05-07T06:28:02.104Z,59888.81
2019-05-07T06:30:30.513Z,59888.81
2019-05-07T06:32:58.901Z,59883.73
2019-05-07T06:35:27.301Z,59857.32
2019-05-07T06:37:55.701Z,59885.76
2019-05-07T06:40:29.473Z,59881.70
2019-05-07T06:43:00.339Z,59881.70
2019-05-07T06:45:35.389Z,59876.62
2019-05-07T06:48:03.617Z,59854.27
2019-05-07T06:50:32.731Z,59875.61
2019-05-07T06:53:02.707Z,59868.49
2019-05-07T06:55:32.422Z,59868.49
2019-05-07T06:58:02.602Z,59863.41
2019-05-07T07:00:33.399Z,59868.49
2019-05-07T07:03:15.192Z,59868.49
2019-05-07T07:05:45.208Z,59868.49
2019-05-07T07:08:15.590Z,59864.43
2019-05-07T07:11:02.725Z,59868.49
2019-05-07T07:13:32.258Z,59868.49
2019-05-07T07:16:01.950Z,59864.43
2019-05-07T07:18:32.362Z,59863.41
2019-05-07T07:21:02.193Z,59845.12
2019-05-07T07:23:32.393Z,59845.12
2019-05-07T07:26:03.246Z,59875.61
2019-05-07T07:28:32.701Z,59848.17
2019-05-07T07:31:05.723Z,59868.49
2019-05-07T07:33:35.765Z,59853.25
2019-05-07T07:36:04.440Z,59832.93
2019-05-07T07:38:33.438Z,59871.54
2019-05-07T07:41:05.543Z,59865.44
2019-05-07T07:43:33.885Z,59860.36
2019-05-07T07:46:02.685Z,59858.33
2019-05-07T07:48:32.132Z,59864.43
2019-05-07T07:51:03.025Z,59863.41
2019-05-07T07:53:35.210Z,59856.30
2019-05-07T07:56:19.955Z,59875.61
2019-05-07T07:59:06.436Z,59848.17
2019-05-07T08:01:36.775Z,59865.44
2019-05-07T08:04:05.232Z,59871.54
2019-05-07T08:06:33.978Z,59862.39
2019-05-07T08:09:02.447Z,59875.61
2019-05-07T08:11:31.949Z,59863.41
2019-05-07T08:14:02.308Z,59843.09
2019-05-07T08:16:32.716Z,59834.96
2019-05-07T08:19:02.963Z,59860.36
2019-05-07T08:21:33.161Z,59869.51
2019-05-07T08:24:02.900Z,59855.28
2019-05-07T08:26:32.318Z,59843.09
2019-05-07T08:29:02.931Z,59824.80
2019-05-07T08:31:45.045Z,59857.32
2019-05-07T08:34:15.059Z,59853.25
2019-05-07T08:36:43.475Z,59843.09
2019-05-07T08:39:13.031Z,59846.14
2019-05-07T08:41:44.228Z,59860.36
2019-05-07T08:44:17.357Z,59852.23
2019-05-07T08:46:52.090Z,59873.57
2019-05-07T08:49:33.429Z,59852.23
2019-05-07T08:52:03.056Z,59840.04
2019-05-07T08:54:32.538Z,59825.82
2019-05-07T08:57:02.055Z,59811.59
2019-05-07T08:59:32.100Z,59841.06
2019-05-07T09:02:02.999Z,59834.96
2019-05-07T09:04:32.763Z,59840.04
2019-05-07T09:07:02.730Z,59868.49
2019-05-07T09:09:32.453Z,59845.12
2019-05-07T09:12:03.066Z,59841.06
2019-05-07T09:14:32.203Z,59808.55
2019-05-07T09:17:02.692Z,59849.18
2019-05-07T09:19:32.293Z,59839.03
2019-05-07T09:22:02.114Z,59844.11
2019-05-07T09:24:32.954Z,59813.62
2019-05-07T09:27:12.221Z,59865.44
2019-05-07T09:29:52.027Z,59818.70
2019-05-07T09:32:25.122Z,59845.12
2019-05-07T09:34:55.435Z,59853.25
2019-05-07T09:37:28.860Z,59859.35
2019-05-07T09:40:06.917Z,59846.14
2019-05-07T09:42:37.289Z,59807.53
2019-05-07T09:45:08.506Z,59870.52
2019-05-07T09:47:37.216Z,59841.06
2019-05-07T09:50:08.913Z,59851.22
2019-05-07T09:52:37.394Z,59833.95
2019-05-07T09:55:16.455Z,59838.01
2019-05-07T09:57:37.913Z,59821.75
2019-05-07T10:00:09.775Z,59842.07
2019-05-07T10:02:42.312Z,59845.12
2019-05-07T10:05:10.933Z,59832.93
2019-05-07T10:07:39.708Z,59815.66
2019-05-07T10:10:08.709Z,59831.91
2019-05-07T10:12:57.278Z,59801.43
2019-05-07T10:15:26.041Z,59823.79
2019-05-07T10:17:59.353Z,59833.95
2019-05-07T10:20:33.250Z,59820.74
2019-05-07T10:23:02.388Z,59838.01
2019-05-07T10:25:40.191Z,59846.14
2019-05-07T10:28:09.147Z,59842.07
2019-05-07T10:30:37.626Z,59826.83
2019-05-07T10:33:06.021Z,59817.69
2019-05-07T10:35:34.587Z,59849.18
2019-05-07T10:38:03.272Z,59845.12
2019-05-07T10:40:32.768Z,59836.99
2019-05-07T10:43:01.786Z,59826.83
2019-05-07T10:45:35.193Z,59856.30
2019-05-07T10:48:07.967Z,59817.69
2019-05-07T10:50:39.381Z,59844.11
2019-05-07T10:53:09.705Z,59828.86
2019-05-07T10:55:45.479Z,59824.80
2019-05-07T10:58:12.839Z,59839.03
2019-05-07T11:00:42.076Z,59833.95
2019-05-07T11:03:12.587Z,59825.82
2019-05-07T11:05:41.861Z,59857.32
2019-05-07T11:08:11.109Z,59836.99
2019-05-07T11:10:41.765Z,59856.30
2019-05-07T11:13:12.646Z,59835.98
2019-05-07T11:15:42.933Z,59841.06
2019-05-07T11:18:16.302Z,59851.22
2019-05-07T11:20:49.308Z,59826.83
2019-05-07T11:23:15.112Z,59857.32
2019-05-07T11:25:43.508Z,59841.06
2019-05-07T11:28:12.532Z,59850.20
2019-05-07T11:30:42.526Z,59848.17
2019-05-07T11:33:12.769Z,59833.95
2019-05-07T11:35:42.282Z,59840.04
2019-05-07T11:38:20.621Z,59843.09
2019-05-07T11:40:42.681Z,59847.15
2019-05-07T11:43:19.162Z,59830.90
2019-05-07T11:45:49.210Z,59838.01
2019-05-07T11:48:18.560Z,59839.03
2019-05-07T11:51:03.279Z,59816.67
2019-05-07T11:53:29.065Z,59811.59
2019-05-07T11:55:59.319Z,59804.48
2019-05-07T11:58:27.804Z,59831.91
2019-05-07T12:01:05.170Z,59811.59
2019-05-07T12:03:33.607Z,59824.80
2019-05-07T12:06:02.275Z,59803.46
2019-05-07T12:08:38.412Z,59846.14
2019-05-07T12:11:02.332Z,59828.86
2019-05-07T12:13:32.271Z,59808.55
2019-05-07T12:16:02.948Z,59801.43
2019-05-07T12:18:31.907Z,59842.07
2019-05-07T12:21:03.884Z,59819.72
2019-05-07T12:23:33.060Z,59826.83
2019-05-07T12:26:02.283Z,59791.27
2019-05-07T12:28:32.834Z,59831.91
2019-05-07T12:31:08.977Z,59840.04
2019-05-07T12:33:39.017Z,59826.83
2019-05-07T12:36:09.116Z,59810.58
2019-05-07T12:38:41.608Z,59818.70
2019-05-07T12:41:27.739Z,59823.79
2019-05-07T12:43:56.140Z,59839.03
2019-05-07T12:46:24.581Z,59819.72
2019-05-07T12:48:53.064Z,59854.27
2019-05-07T12:51:33.492Z,59812.61
2019-05-07T12:53:55.448Z,59812.61
2019-05-07T12:56:23.854Z,59832.93
2019-05-07T12:58:52.524Z,59836.99
2019-05-07T13:01:42.201Z,59838.01
2019-05-07T13:04:15.297Z,59808.55
2019-05-07T13:06:45.359Z,59816.67
2019-05-07T13:09:13.810Z,59829.88
2019-05-07T13:11:42.570Z,59805.50
2019-05-07T13:14:12.589Z,59824.80
2019-05-07T13:16:41.392Z,59808.55
2019-05-07T13:19:09.791Z,59803.46
2019-05-07T13:21:49.136Z,59805.50
2019-05-07T13:24:08.533Z,59804.48
2019-05-07T13:26:36.993Z,59805.50
2019-05-07T13:29:05.516Z,59801.43
2019-05-07T13:31:35.659Z,59803.46
2019-05-07T13:34:04.340Z,59778.06
2019-05-07T13:36:35.153Z,59797.37
2019-05-07T13:39:12.582Z,59801.43
2019-05-07T13:41:42.611Z,59788.23
2019-05-07T13:44:13.889Z,59790.26
2019-05-07T13:46:45.022Z,59795.34
2019-05-07T13:49:13.221Z,59791.27
2019-05-07T13:51:42.081Z,59806.52
2019-05-07T13:54:12.877Z,59803.46
2019-05-07T13:56:41.929Z,59795.34
2019-05-07T13:59:13.171Z,59798.38
2019-05-07T14:01:43.898Z,59796.35
2019-05-07T14:04:13.008Z,59752.66
2019-05-07T14:06:43.013Z,59828.86
2019-05-07T14:09:15.133Z,59772.98
2019-05-07T14:11:43.653Z,59801.43
2019-05-07T14:14:12.402Z,59818.70
2019-05-07T14:16:44.723Z,59809.56
2019-05-07T14:19:12.992Z,59772.98
2019-05-07T14:21:42.281Z,59769.94
2019-05-07T14:24:16.659Z,59786.19
2019-05-07T14:26:44.989Z,59802.45
2019-05-07T14:29:16.499Z,59785.18
2019-05-07T14:31:48.250Z,59796.35
2019-05-07T14:34:35.009Z,59805.50
2019-05-07T14:37:05.449Z,59796.35
2019-05-07T14:39:33.861Z,59805.50
2019-05-07T14:42:04.344Z,59786.19
2019-05-07T14:44:49.997Z,59778.06
2019-05-07T14:47:19.572Z,59781.11
2019-05-07T14:49:49.057Z,59802.45
2019-05-07T14:52:28.949Z,59827.85
2019-05-07T14:54:51.974Z,59783.14
2019-05-07T14:57:22.097Z,59794.32
2019-05-07T14:59:52.385Z,59811.59
2019-05-07T15:02:21.003Z,59820.74
2019-05-07T15:04:52.083Z,59832.93
2019-05-07T15:07:22.452Z,59815.66
2019-05-07T15:09:51.910Z,59821.75
2019-05-07T15:12:20.400Z,59831.91
2019-05-07T15:14:48.980Z,59812.61
2019-05-07T15:17:19.042Z,59812.61
2019-05-07T15:19:47.773Z,59810.58
2019-05-07T15:22:23.817Z,59816.67
2019-05-07T15:24:52.652Z,59830.90
2019-05-07T15:27:22.769Z,59832.93
2019-05-07T15:29:52.628Z,59825.82
2019-05-07T15:32:21.949Z,59824.80
2019-05-07T15:34:52.563Z,59833.95
2019-05-07T15:37:20.805Z,59805.50
2019-05-07T15:39:49.197Z,59793.30
2019-05-07T15:42:17.742Z,59791.27
2019-05-07T15:44:46.287Z,59793.30
2019-05-07T15:47:19.118Z,59782.13
2019-05-07T15:49:47.619Z,59788.23
2019-05-07T15:52:22.157Z,59825.82
2019-05-07T15:54:52.222Z,60383.66
2019-05-07T15:57:22.794Z,60391.79
2019-05-07T15:59:52.859Z,60392.80
2019-05-07T16:02:25.737Z,60414.14
2019-05-07T16:04:54.170Z,60372.48
2019-05-07T16:07:22.683Z,60361.30
2019-05-07T16:09:52.592Z,60401.95
2019-05-07T16:12:22.668Z,60387.72
2019-05-07T16:14:52.473Z,60399.92
2019-05-07T16:17:24.510Z,60377.56
2019-05-07T16:19:55.028Z,60385.69
2019-05-07T16:22:24.868Z,60365.37
2019-05-07T16:24:53.309Z,60400.93
2019-05-07T16:27:22.490Z,60407.03
2019-05-07T16:29:52.700Z,60377.56
2019-05-07T16:32:24.803Z,60377.56
2019-05-07T16:34:53.218Z,60407.03
2019-05-07T16:37:21.731Z,60395.86
2019-05-07T16:39:50.213Z,60382.64
2019-05-07T16:42:18.589Z,60394.84
2019-05-07T16:44:47.340Z,60385.69
2019-05-07T16:47:16.555Z,60387.72
2019-05-07T16:49:44.949Z,60405.00
2019-05-07T16:52:13.344Z,60387.72
2019-05-07T16:54:44.896Z,60381.63
2019-05-07T16:57:28.746Z,60391.79
2019-05-07T16:59:57.212Z,60396.87
2019-05-07T17:02:27.247Z,60383.66
2019-05-07T17:05:05.200Z,60403.98
2019-05-07T17:07:35.392Z,60374.52
2019-05-07T17:10:08.096Z,60379.59
2019-05-07T17:12:38.790Z,60397.89
2019-05-07T17:15:08.506Z,60387.72
2019-05-07T17:17:37.018Z,60387.72
2019-05-07T17:20:07.900Z,59820.74
2019-05-07T17:22:36.631Z,59842.07
2019-05-07T17:25:26.694Z,59791.27
2019-05-07T17:27:55.101Z,59802.45
2019-05-07T17:30:23.494Z,59793.30
2019-05-07T17:32:52.564Z,59807.53
2019-05-07T17:35:22.405Z,59815.66
2019-05-07T17:37:51.853Z,59799.40
2019-05-07T17:40:22.169Z,59814.64
2019-05-07T17:42:52.471Z,59809.56
2019-05-07T17:45:22.424Z,59815.66
2019-05-07T17:47:52.331Z,59788.23
2019-05-07T17:50:25.706Z,59795.34
2019-05-07T17:52:54.087Z,59802.45
2019-05-07T17:55:22.478Z,59764.86
2019-05-07T17:57:52.367Z,59809.56
2019-05-07T18:00:22.156Z,59790.26
2019-05-07T18:02:55.172Z,59793.30
2019-05-07T18:05:23.561Z,59814.64
2019-05-07T18:07:52.770Z,59803.46
2019-05-07T18:10:21.760Z,59825.82
2019-05-07T18:12:54.570Z,59809.56
2019-05-07T18:15:23.038Z,59787.21
2019-05-07T18:17:53.066Z,59776.03
2019-05-07T18:20:22.226Z,59816.67
2019-05-07T18:22:52.124Z,59816.67
2019-05-07T18:25:21.739Z,59789.24
2019-05-07T18:27:52.552Z,59806.52
2019-05-07T18:30:22.171Z,59809.56
2019-05-07T18:32:55.344Z,59815.66
2019-05-07T18:35:23.722Z,59814.64
2019-05-07T18:37:52.726Z,59807.53
2019-05-07T18:40:22.583Z,59802.45
2019-05-07T18:42:52.435Z,59835.98
2019-05-07T18:45:21.772Z,59825.82
2019-05-07T18:47:51.707Z,59805.50
2019-05-07T18:50:22.341Z,59824.80
2019-05-07T18:52:52.226Z,59817.69
2019-05-07T18:55:22.698Z,59808.55
2019-05-07T18:57:51.814Z,59829.88
2019-05-07T19:00:25.331Z,59835.98
2019-05-07T19:02:53.779Z,59813.62
2019-05-07T19:05:22.363Z,59800.42
2019-05-07T19:08:03.848Z,59808.55
2019-05-07T19:10:22.025Z,59824.80
2019-05-07T19:12:52.755Z,59820.74
2019-05-07T19:15:22.009Z,59816.67
2019-05-07T19:17:50.454Z,59805.50
2019-05-07T19:20:18.840Z,59820.74
2019-05-07T19:22:47.232Z,59811.59
2019-05-07T19:25:15.671Z,59826.83
2019-05-07T19:27:44.555Z,59836.99
2019-05-07T19:30:13.655Z,59831.91
2019-05-07T19:32:42.732Z,59846.14
2019-05-07T19:35:13.639Z,59827.85
2019-05-07T19:37:42.594Z,59834.96
2019-05-07T19:40:12.508Z,59819.72
2019-05-07T19:42:42.774Z,59833.95
2019-05-07T19:45:12.808Z,59802.45
2019-05-07T19:47:44.927Z,59834.96
2019-05-07T19:50:13.389Z,59833.95
2019-05-07T19:52:42.656Z,59839.03
2019-05-07T19:55:14.570Z,59820.74
2019-05-07T19:57:52.140Z,59807.53
2019-05-07T20:00:24.997Z,59806.52
2019-05-07T20:02:57.723Z,59828.86
2019-05-07T20:05:32.359Z,59842.07
2019-05-07T20:08:04.628Z,59826.83
2019-05-07T20:10:33.939Z,59835.98
2019-05-07T20:13:03.102Z,59826.83
2019-05-07T20:15:32.019Z,59829.88
2019-05-07T20:18:03.027Z,59811.59
2019-05-07T20:20:33.175Z,59832.93
2019-05-07T20:23:03.531Z,59811.59
2019-05-07T20:25:33.210Z,59839.03
2019-05-07T20:28:02.268Z,59826.83
2019-05-07T20:30:32.465Z,59842.07
2019-05-07T20:33:02.948Z,59846.14
2019-05-07T20:35:32.584Z,59818.70
2019-05-07T20:38:02.892Z,59850.20
2019-05-07T20:40:32.043Z,59851.22
2019-05-07T20:43:01.920Z,59843.09
2019-05-07T20:45:32.082Z,59807.53
2019-05-07T20:48:02.570Z,59833.95
2019-05-07T20:50:33.098Z,59831.91
2019-05-07T20:53:02.057Z,59829.88
2019-05-07T20:55:35.086Z,59827.85
2019-05-07T20:58:03.497Z,59831.91
2019-05-07T21:00:32.604Z,59831.91
2019-05-07T21:03:19.647Z,59839.03
2019-05-07T21:05:52.957Z,59851.22
2019-05-07T21:08:22.685Z,59825.82
2019-05-07T21:10:53.593Z,59853.25
2019-05-07T21:13:28.478Z,59838.01
2019-05-07T21:15:53.774Z,59842.07
2019-05-07T21:18:23.321Z,59827.85
2019-05-07T21:20:52.979Z,59827.85
2019-05-07T21:23:23.084Z,59850.20
2019-05-07T21:25:52.792Z,59843.09
2019-05-07T21:28:21.618Z,59835.98
2019-05-07T21:30:52.219Z,59811.59
2019-05-07T21:33:22.617Z,59811.59
2019-05-07T21:35:52.297Z,59859.35
2019-05-07T21:38:22.306Z,59852.23
2019-05-07T21:40:50.968Z,59822.77
2019-05-07T21:43:21.881Z,59839.03
2019-05-07T21:45:49.511Z,59839.03
2019-05-07T21:48:18.237Z,59817.69
2019-05-07T21:50:46.631Z,59828.86
2019-05-07T21:53:16.669Z,59852.23
2019-05-07T21:55:58.820Z,59852.23
2019-05-07T21:58:24.191Z,59840.04
2019-05-07T22:01:02.119Z,59840.04
2019-05-07T22:03:32.430Z,59846.14
2019-05-07T22:06:02.612Z,59847.15
2019-05-07T22:08:32.586Z,59829.88
2019-05-07T22:11:02.503Z,59833.95
2019-05-07T22:13:32.944Z,59833.95
2019-05-07T22:16:02.619Z,59827.85
2019-05-07T22:18:31.975Z,59827.85
2019-05-07T22:21:02.884Z,59859.35
2019-05-07T22:23:32.468Z,59814.64
2019-05-07T22:26:18.430Z,59819.72
2019-05-07T22:28:32.105Z,59842.07
2019-05-07T22:31:02.510Z,59858.33
2019-05-07T22:33:32.533Z,59840.04
2019-05-07T22:36:01.790Z,59840.04
2019-05-07T22:38:32.377Z,59834.96
2019-05-07T22:41:02.162Z,59834.96
2019-05-07T22:43:31.838Z,59855.28
2019-05-07T22:46:00.492Z,59844.11
2019-05-07T22:48:29.164Z,59832.93
2019-05-07T22:50:57.567Z,59849.18
2019-05-07T22:53:25.977Z,59849.18
2019-05-07T22:55:54.364Z,59836.99
2019-05-07T22:58:41.840Z,59844.11
2019-05-07T23:01:14.618Z,59844.11
2019-05-07T23:03:45.631Z,59820.74
2019-05-07T23:06:14.034Z,59820.74
2019-05-07T23:08:42.652Z,59851.22
2019-05-07T23:11:12.264Z,59813.62
2019-05-07T23:13:42.742Z,59813.62
2019-05-07T23:16:12.569Z,59846.14
2019-05-07T23:18:42.814Z,59838.01
2019-05-07T23:21:11.462Z,59838.01
2019-05-07T23:23:42.265Z,59844.11
2019-05-07T23:26:14.303Z,59832.93
2019-05-07T23:28:41.843Z,59818.70
2019-05-07T23:31:12.112Z,59833.95
2019-05-07T23:33:40.459Z,59831.91
2019-05-07T23:36:08.861Z,59862.39
2019-05-07T23:38:37.274Z,59862.39
2019-05-07T23:41:07.318Z,59816.67
2019-05-07T23:43:35.927Z,59850.20
2019-05-07T23:46:04.655Z,59850.20
2019-05-07T23:48:33.054Z,59843.09
2019-05-07T23:51:02.119Z,59842.07
2019-05-07T23:53:30.649Z,59842.07
2019-05-07T23:55:59.043Z,59832.93
2019-05-07T23:58:27.468Z,59836.99
